Time;durP1;ratioP1;P1;durP2;ratioP2;P2;SDS_P1;SDS_P2;PMS_P1;PMS_P2;Temp;Humidity;BMP_temperature;BMP_pressure;BME280_temperature;BME280_humidity;BME280_pressure;Samples;Min_cycle;Max_cycle;Signal;HPM_P1;HPM_P2
2021/11/13 00:02:05;;;;;;;;;;;4.10;99.90;;;;;;5097947;28;20003;-68
2021/11/13 00:04:30;;;;;;;;;;;4.00;99.90;;;;;;5097757;28;19904;-68
2021/11/13 00:06:56;;;;;;;;;;;3.90;99.90;;;;;;5097449;28;19961;-68
2021/11/13 00:09:21;;;;;;;;;;;3.90;99.90;;;;;;5097497;28;20331;-67
2021/11/13 00:11:47;;;;;;;;;;;3.90;99.90;;;;;;5097676;28;19904;-68
2021/11/13 00:14:16;;;;;;;;;;;3.80;99.90;;;;;;5098567;28;19947;-68
2021/11/13 00:16:42;;;;;;;;;;;3.80;99.90;;;;;;5097259;28;19916;-68
2021/11/13 00:19:08;;;;;;;;;;;3.80;99.90;;;;;;5096993;28;19969;-68
2021/11/13 00:21:34;;;;;;;;;;;3.80;99.90;;;;;;5097128;28;19916;-67
2021/11/13 00:23:59;;;;;;;;;;;3.90;99.90;;;;;;5096809;28;19912;-69
2021/11/13 00:26:25;;;;;;;;;;;3.90;99.90;;;;;;5096788;28;19908;-68
2021/11/13 00:28:50;;;;;;;;;;;4.10;99.90;;;;;;5096795;28;19993;-68
2021/11/13 00:31:16;;;;;;;;;;;3.90;99.90;;;;;;5096646;28;19904;-68
2021/11/13 00:33:41;;;;;;;;;;;3.90;99.90;;;;;;5096539;28;19904;-68
2021/11/13 00:36:07;;;;;;;;;;;4.00;99.90;;;;;;5097051;28;19908;-68
2021/11/13 00:38:33;;;;;;;;;;;4.20;99.90;;;;;;5095628;28;19911;-67
2021/11/13 00:40:58;;;;;;;;;;;4.10;99.90;;;;;;5098098;28;19947;-68
2021/11/13 00:43:26;;;;;;;;;;;3.90;99.90;;;;;;5097621;28;19915;-66
2021/11/13 00:45:52;;;;;;;;;;;3.90;99.90;;;;;;5098674;28;19908;-65
2021/11/13 00:48:18;;;;;;;;;;;3.80;99.90;;;;;;5098456;28;20274;-66
2021/11/13 00:50:44;;;;;;;;;;;3.90;99.90;;;;;;5100602;28;19904;-66
2021/11/13 00:53:09;;;;;;;;;;;3.90;99.90;;;;;;5100083;28;19908;-66
2021/11/13 00:55:35;;;;;;;;;;;4.00;99.90;;;;;;5097588;28;19904;-65
2021/11/13 00:58:00;;;;;;;;;;;4.20;99.90;;;;;;5097256;28;20282;-65
2021/11/13 01:00:26;;;;;;;;;;;4.30;99.90;;;;;;5096948;28;20218;-65
2021/11/13 01:02:52;;;;;;;;;;;4.10;99.90;;;;;;5099775;28;19904;-65
2021/11/13 01:05:18;;;;;;;;;;;4.20;99.90;;;;;;5098306;28;19912;-65
2021/11/13 01:07:44;;;;;;;;;;;4.10;99.90;;;;;;5098738;28;19911;-65
2021/11/13 01:10:10;;;;;;;;;;;4.00;99.90;;;;;;5099139;28;19904;-65
2021/11/13 01:12:36;;;;;;;;;;;4.00;99.90;;;;;;5099665;28;19926;-66
2021/11/13 01:15:02;;;;;;;;;;;3.90;99.90;;;;;;5097660;28;19996;-65
2021/11/13 01:17:28;;;;;;;;;;;3.80;99.90;;;;;;5095388;28;20337;-65
2021/11/13 01:19:53;;;;;;;;;;;3.90;99.90;;;;;;5096955;28;19943;-65
2021/11/13 01:22:18;;;;;;;;;;;3.90;99.90;;;;;;5096366;28;19915;-65
2021/11/13 01:24:45;;;;;;;;;;;3.80;99.90;;;;;;5095916;28;19995;-65
2021/11/13 01:27:10;;;;;;;;;;;3.80;99.90;;;;;;5094566;28;19911;-65
2021/11/13 01:29:36;;;;;;;;;;;3.80;99.90;;;;;;5094266;28;19904;-65
2021/11/13 01:32:02;;;;;;;;;;;3.70;99.90;;;;;;5095460;28;19904;-65
2021/11/13 01:34:27;;;;;;;;;;;3.60;99.90;;;;;;5095681;28;19904;-65
2021/11/13 01:36:53;;;;;;;;;;;3.60;99.90;;;;;;5095418;28;19904;-65
2021/11/13 01:39:19;;;;;;;;;;;3.70;99.90;;;;;;5094448;28;19908;-65
2021/11/13 01:41:45;;;;;;;;;;;3.70;99.90;;;;;;5095276;28;19908;-65
2021/11/13 01:44:10;;;;;;;;;;;3.90;99.90;;;;;;5095525;28;20089;-65
2021/11/13 01:46:36;;;;;;;;;;;3.80;99.90;;;;;;5095250;28;19908;-65
2021/11/13 01:49:02;;;;;;;;;;;3.70;99.90;;;;;;5095350;28;19961;-65
2021/11/13 01:51:29;;;;;;;;;;;3.60;99.90;;;;;;5095082;28;19912;-65
2021/11/13 01:53:57;;;;;;;;;;;3.80;99.90;;;;;;5095283;28;19950;-65
2021/11/13 01:56:23;;;;;;;;;;;3.90;99.90;;;;;;5094906;28;19990;-65
2021/11/13 01:58:50;;;;;;;;;;;3.80;99.90;;;;;;5094762;28;19944;-65
2021/11/13 02:01:16;;;;;;;;;;;4.00;99.90;;;;;;5094539;28;19936;-66
2021/11/13 02:03:44;;;;;;;;;;;3.80;99.90;;;;;;5094900;28;19997;-65
2021/11/13 02:06:09;;;;;;;;;;;3.90;99.90;;;;;;5093163;28;20011;-65
2021/11/13 02:08:35;;;;;;;;;;;3.80;99.90;;;;;;5094457;28;19943;-65
2021/11/13 02:11:01;;;;;;;;;;;3.90;99.90;;;;;;5093431;28;20002;-65
2021/11/13 02:13:26;;;;;;;;;;;3.80;99.90;;;;;;5094690;28;19904;-65
2021/11/13 02:15:52;;;;;;;;;;;3.90;99.90;;;;;;5094525;28;19904;-65
2021/11/13 02:18:17;;;;;;;;;;;3.90;99.90;;;;;;5094351;28;19957;-65
2021/11/13 02:20:43;;;;;;;;;;;3.80;99.90;;;;;;5094332;28;19910;-65
2021/11/13 02:23:11;;;;;;;;;;;3.90;99.90;;;;;;5092681;28;19972;-65
2021/11/13 02:25:37;;;;;;;;;;;3.80;99.90;;;;;;5093314;28;19981;-65
2021/11/13 02:28:05;;;;;;;;;;;3.80;99.90;;;;;;5093147;28;19944;-65
2021/11/13 02:30:31;;;;;;;;;;;3.90;99.90;;;;;;5093045;28;19904;-66
2021/11/13 02:32:56;;;;;;;;;;;3.90;99.90;;;;;;5094090;28;20033;-65
2021/11/13 02:35:23;;;;;;;;;;;4.00;99.90;;;;;;5094084;28;19904;-65
2021/11/13 02:37:49;;;;;;;;;;;3.90;99.90;;;;;;5092802;28;19904;-65
2021/11/13 02:40:15;;;;;;;;;;;3.70;99.90;;;;;;5092913;28;19904;-66
2021/11/13 02:42:42;;;;;;;;;;;3.70;99.90;;;;;;5092505;28;19927;-66
2021/11/13 02:45:10;;;;;;;;;;;3.70;99.90;;;;;;5093987;28;19915;-65
2021/11/13 02:47:36;;;;;;;;;;;3.70;99.90;;;;;;5092656;28;19946;-65
2021/11/13 02:50:02;;;;;;;;;;;3.60;99.90;;;;;;5094613;28;20327;-65
2021/11/13 02:52:39;;;;;;;;;;;3.60;99.90;;;;;;5094184;28;19904;-66
2021/11/13 02:55:05;;;;;;;;;;;3.60;99.90;;;;;;5092576;28;20023;-65
2021/11/13 02:57:31;;;;;;;;;;;3.70;99.90;;;;;;5093869;28;19975;-65
2021/11/13 02:59:56;;;;;;;;;;;3.70;99.90;;;;;;5094166;28;19939;-65
2021/11/13 03:02:22;;;;;;;;;;;3.70;99.90;;;;;;5092179;28;19956;-65
2021/11/13 03:04:47;;;;;;;;;;;3.70;99.90;;;;;;5093665;28;20286;-64
2021/11/13 03:07:13;;;;;;;;;;;3.70;99.90;;;;;;5093880;28;19904;-64
2021/11/13 03:09:38;;;;;;;;;;;3.70;99.90;;;;;;5092406;28;19904;-65
2021/11/13 03:12:04;;;;;;;;;;;3.70;99.90;;;;;;5093682;28;20330;-64
2021/11/13 03:14:29;;;;;;;;;;;3.90;99.90;;;;;;5094057;28;20358;-64
2021/11/13 03:17:02;;;;;;;;;;;3.90;99.90;;;;;;5092480;28;19908;-65
2021/11/13 03:19:27;;;;;;;;;;;4.00;99.90;;;;;;5094206;28;19911;-67
2021/11/13 03:21:53;;;;;;;;;;;4.00;99.90;;;;;;5092176;28;20324;-65
2021/11/13 03:24:18;;;;;;;;;;;4.10;99.90;;;;;;5092385;28;20354;-65
2021/11/13 03:26:44;;;;;;;;;;;4.00;99.90;;;;;;5093416;28;19908;-65
2021/11/13 03:29:16;;;;;;;;;;;3.90;99.90;;;;;;5092184;28;19988;-65
2021/11/13 03:31:42;;;;;;;;;;;3.90;99.90;;;;;;5093285;28;19911;-65
2021/11/13 03:34:08;;;;;;;;;;;3.80;99.90;;;;;;5095091;28;19908;-65
2021/11/13 03:36:34;;;;;;;;;;;3.70;99.90;;;;;;5097589;28;20377;-64
2021/11/13 03:39:00;;;;;;;;;;;3.60;99.90;;;;;;5097563;28;19908;-67
2021/11/13 03:41:26;;;;;;;;;;;3.80;99.90;;;;;;5097748;28;20447;-66
2021/11/13 03:43:52;;;;;;;;;;;3.80;99.90;;;;;;5097938;28;19908;-64
2021/11/13 03:46:17;;;;;;;;;;;3.80;99.90;;;;;;5109783;28;19908;-65
2021/11/13 03:48:43;;;;;;;;;;;4.00;99.90;;;;;;5110337;28;19910;-65
2021/11/13 03:51:09;;;;;;;;;;;3.90;99.90;;;;;;5110745;28;20330;-65
2021/11/13 03:53:34;;;;;;;;;;;4.00;99.90;;;;;;5110040;28;19908;-66
2021/11/13 03:56:00;;;;;;;;;;;4.00;99.90;;;;;;5101560;28;19904;-65
2021/11/13 03:58:25;;;;;;;;;;;4.10;99.90;;;;;;5098034;28;19904;-65
2021/11/13 04:00:51;;;;;;;;;;;4.20;99.90;;;;;;5097283;28;19916;-66
2021/11/13 04:03:18;;;;;;;;;;;4.20;99.90;;;;;;5097290;28;19966;-65
2021/11/13 04:05:44;;;;;;;;;;;4.20;99.90;;;;;;5097367;28;19908;-65
2021/11/13 04:08:09;;;;;;;;;;;4.20;99.90;;;;;;5095932;28;19997;-65
2021/11/13 04:10:35;;;;;;;;;;;4.00;99.90;;;;;;5097334;28;19904;-65
2021/11/13 04:13:00;;;;;;;;;;;4.00;99.90;;;;;;5096959;28;19949;-65
2021/11/13 04:15:26;;;;;;;;;;;3.90;99.90;;;;;;5096892;28;19904;-65
2021/11/13 04:17:51;;;;;;;;;;;3.80;99.90;;;;;;5097081;28;19908;-66
2021/11/13 04:20:18;;;;;;;;;;;3.80;99.90;;;;;;5095932;28;19904;-65
2021/11/13 04:22:44;;;;;;;;;;;3.90;99.90;;;;;;5097038;28;19911;-65
2021/11/13 04:25:10;;;;;;;;;;;3.90;99.90;;;;;;5096946;28;19912;-65
2021/11/13 04:27:36;;;;;;;;;;;4.00;99.90;;;;;;5096467;28;19927;-66
2021/11/13 04:30:02;;;;;;;;;;;4.10;99.90;;;;;;5096535;28;19912;-66
2021/11/13 04:32:29;;;;;;;;;;;3.90;99.90;;;;;;5096624;28;19904;-66
2021/11/13 04:37:20;;;;;;;;;;;4.00;99.90;;;;;;5096359;28;20273;-66
2021/11/13 04:39:46;;;;;;;;;;;3.90;99.90;;;;;;5095012;28;19903;-66
2021/11/13 04:42:13;;;;;;;;;;;3.90;99.90;;;;;;5095928;28;20282;-66
2021/11/13 04:44:38;;;;;;;;;;;3.90;99.90;;;;;;5095973;28;19926;-66
2021/11/13 04:47:04;;;;;;;;;;;3.90;99.90;;;;;;5096167;28;20359;-66
2021/11/13 04:49:31;;;;;;;;;;;3.80;99.90;;;;;;5096313;28;19908;-66
2021/11/13 04:51:56;;;;;;;;;;;3.70;99.90;;;;;;5096052;28;19949;-66
2021/11/13 04:54:22;;;;;;;;;;;3.80;99.90;;;;;;5095895;28;20316;-66
2021/11/13 04:56:47;;;;;;;;;;;3.80;99.90;;;;;;5095895;28;19904;-66
2021/11/13 04:59:13;;;;;;;;;;;3.80;99.90;;;;;;5094594;28;19904;-66
2021/11/13 05:01:39;;;;;;;;;;;4.10;99.90;;;;;;5095827;28;19904;-66
2021/11/13 05:04:04;;;;;;;;;;;4.00;99.90;;;;;;5095843;28;19908;-65
2021/11/13 05:06:31;;;;;;;;;;;3.90;99.90;;;;;;5096117;28;19959;-65
2021/11/13 05:08:57;;;;;;;;;;;4.00;99.90;;;;;;5095874;28;20282;-66
2021/11/13 05:11:22;;;;;;;;;;;4.00;99.90;;;;;;5095822;28;19926;-66
2021/11/13 05:13:48;;;;;;;;;;;4.00;99.90;;;;;;5095966;28;19904;-65
2021/11/13 05:16:13;;;;;;;;;;;4.00;99.90;;;;;;5095601;28;19904;-65
2021/11/13 05:18:39;;;;;;;;;;;4.00;99.90;;;;;;5094476;28;19904;-65
2021/11/13 05:21:04;;;;;;;;;;;3.70;99.90;;;;;;5094947;28;19961;-66
2021/11/13 05:23:30;;;;;;;;;;;3.70;99.90;;;;;;5095582;28;19915;-66
2021/11/13 05:25:55;;;;;;;;;;;3.70;99.90;;;;;;5095474;28;20362;-66
2021/11/13 05:28:21;;;;;;;;;;;3.70;99.90;;;;;;5094220;28;20391;-66
2021/11/13 05:30:46;;;;;;;;;;;3.80;99.90;;;;;;5094257;28;19911;-65
2021/11/13 05:33:12;;;;;;;;;;;3.80;99.90;;;;;;5095615;28;19926;-65
2021/11/13 05:35:37;;;;;;;;;;;4.10;99.90;;;;;;5095368;28;20282;-66
2021/11/13 05:38:04;;;;;;;;;;;4.10;99.90;;;;;;5096405;28;19994;-65
2021/11/13 05:40:30;;;;;;;;;;;3.90;99.90;;;;;;5095313;28;20354;-65
2021/11/13 05:42:55;;;;;;;;;;;3.90;99.90;;;;;;5093982;28;19916;-64
2021/11/13 05:45:21;;;;;;;;;;;3.90;99.90;;;;;;5095206;28;19908;-65
2021/11/13 05:47:47;;;;;;;;;;;4.10;99.90;;;;;;5093809;28;19904;-65
2021/11/13 05:50:14;;;;;;;;;;;4.10;99.90;;;;;;5094870;28;19931;-65
2021/11/13 05:52:40;;;;;;;;;;;4.00;99.90;;;;;;5093717;28;19993;-65
2021/11/13 05:55:06;;;;;;;;;;;4.20;99.90;;;;;;5093562;28;19904;-65
2021/11/13 05:57:32;;;;;;;;;;;4.20;99.90;;;;;;5094016;28;20049;-66
2021/11/13 05:59:57;;;;;;;;;;;4.10;99.90;;;;;;5094781;28;19949;-65
2021/11/13 06:02:23;;;;;;;;;;;4.10;99.90;;;;;;5094638;28;19904;-66
2021/11/13 06:04:48;;;;;;;;;;;4.20;99.90;;;;;;5094510;28;19908;-65
2021/11/13 06:07:14;;;;;;;;;;;4.20;99.90;;;;;;5094373;28;19904;-65
2021/11/13 06:09:39;;;;;;;;;;;4.00;99.90;;;;;;5093235;28;20362;-65
2021/11/13 06:12:05;;;;;;;;;;;4.20;99.90;;;;;;5093114;28;20363;-65
2021/11/13 06:14:34;;;;;;;;;;;4.00;99.90;;;;;;5094714;28;19957;-65
2021/11/13 06:17:00;;;;;;;;;;;4.10;99.90;;;;;;5094548;28;19908;-65
2021/11/13 06:19:25;;;;;;;;;;;4.00;99.90;;;;;;5092979;28;20289;-65
2021/11/13 06:21:51;;;;;;;;;;;4.00;99.90;;;;;;5094396;28;19910;-65
2021/11/13 06:24:16;;;;;;;;;;;4.10;99.90;;;;;;5094118;28;19933;-65
2021/11/13 06:26:42;;;;;;;;;;;4.20;99.90;;;;;;5094209;28;20370;-65
2021/11/13 06:29:08;;;;;;;;;;;4.20;99.90;;;;;;5092993;28;19911;-65
2021/11/13 06:31:33;;;;;;;;;;;4.30;99.90;;;;;;5094202;28;19908;-65
2021/11/13 06:33:59;;;;;;;;;;;4.20;99.90;;;;;;5092907;28;20371;-65
2021/11/13 06:36:24;;;;;;;;;;;4.20;99.90;;;;;;5094549;28;19904;-65
2021/11/13 06:38:50;;;;;;;;;;;4.40;99.90;;;;;;5094220;28;19908;-64
2021/11/13 06:41:15;;;;;;;;;;;4.40;99.90;;;;;;5093910;28;19911;-66
2021/11/13 06:43:41;;;;;;;;;;;4.30;99.90;;;;;;5094684;28;20277;-68
2021/11/13 06:46:06;;;;;;;;;;;4.30;99.90;;;;;;5094234;28;19914;-69
2021/11/13 06:48:32;;;;;;;;;;;4.20;99.90;;;;;;5094104;28;19904;-67
2021/11/13 06:50:58;;;;;;;;;;;4.30;99.90;;;;;;5093916;28;20357;-68
2021/11/13 06:53:23;;;;;;;;;;;4.20;99.90;;;;;;5094123;28;20054;-67
2021/11/13 06:55:49;;;;;;;;;;;4.40;99.90;;;;;;5093770;28;19904;-68
2021/11/13 06:58:14;;;;;;;;;;;4.40;99.90;;;;;;5095112;28;19927;-67
2021/11/13 07:00:40;;;;;;;;;;;4.60;99.90;;;;;;5094124;28;19908;-68
2021/11/13 07:03:06;;;;;;;;;;;4.70;99.90;;;;;;5093579;28;19957;-68
2021/11/13 07:05:33;;;;;;;;;;;4.60;99.90;;;;;;5093803;28;19908;-68
2021/11/13 07:07:58;;;;;;;;;;;4.50;99.90;;;;;;5093549;28;19904;-69
2021/11/13 07:10:25;;;;;;;;;;;4.50;99.90;;;;;;5093408;28;19904;-67
2021/11/13 07:12:51;;;;;;;;;;;4.50;99.90;;;;;;5093537;28;20358;-66
2021/11/13 07:15:17;;;;;;;;;;;4.60;99.90;;;;;;5093670;28;19910;-67
2021/11/13 07:17:43;;;;;;;;;;;4.60;99.90;;;;;;5093503;28;19973;-67
2021/11/13 07:20:09;;;;;;;;;;;4.60;99.90;;;;;;5093384;28;20334;-67
2021/11/13 07:22:35;;;;;;;;;;;4.60;99.90;;;;;;5093209;28;19957;-67
2021/11/13 07:25:00;;;;;;;;;;;4.60;99.90;;;;;;5093114;28;19995;-68
2021/11/13 07:27:26;;;;;;;;;;;4.60;99.90;;;;;;5093274;28;19999;-68
2021/11/13 07:29:59;;;;;;;;;;;4.50;99.90;;;;;;5093232;28;20006;-68
2021/11/13 07:32:25;;;;;;;;;;;4.50;99.90;;;;;;5093493;28;19952;-68
2021/11/13 07:34:51;;;;;;;;;;;4.70;99.90;;;;;;5093861;28;20261;-68
2021/11/13 07:37:17;;;;;;;;;;;4.70;99.90;;;;;;5093696;28;20048;-68
2021/11/13 07:39:42;;;;;;;;;;;4.90;99.90;;;;;;5093231;28;19911;-68
2021/11/13 07:42:08;;;;;;;;;;;5.00;99.90;;;;;;5093053;28;20359;-68
2021/11/13 07:44:34;;;;;;;;;;;5.20;99.90;;;;;;5093614;28;19912;-66
2021/11/13 07:46:59;;;;;;;;;;;5.30;99.90;;;;;;5093427;28;19919;-66
2021/11/13 07:49:25;;;;;;;;;;;5.40;99.90;;;;;;5093013;28;19904;-66
2021/11/13 07:51:50;;;;;;;;;;;5.40;99.90;;;;;;5093532;28;19911;-66
2021/11/13 07:54:16;;;;;;;;;;;5.50;99.90;;;;;;5091666;28;19910;-66
2021/11/13 07:56:43;;;;;;;;;;;5.40;99.90;;;;;;5093168;28;19987;-68
2021/11/13 07:59:08;;;;;;;;;;;5.30;99.90;;;;;;5093526;28;19911;-68
2021/11/13 08:01:34;;;;;;;;;;;5.10;99.90;;;;;;5093065;28;19908;-68
2021/11/13 08:03:59;;;;;;;;;;;5.20;99.90;;;;;;5092037;28;19912;-68
2021/11/13 08:06:25;;;;;;;;;;;5.20;99.90;;;;;;5092879;28;20278;-68
2021/11/13 08:08:51;;;;;;;;;;;5.20;99.90;;;;;;5093032;28;19904;-68
2021/11/13 08:11:16;;;;;;;;;;;5.20;99.90;;;;;;5092851;28;19910;-68
2021/11/13 08:13:42;;;;;;;;;;;5.20;99.90;;;;;;5093098;28;19910;-70
2021/11/13 08:16:08;;;;;;;;;;;5.10;99.90;;;;;;5092928;28;19972;-69
2021/11/13 08:18:34;;;;;;;;;;;5.20;99.90;;;;;;5092794;28;19912;-68
2021/11/13 08:21:00;;;;;;;;;;;5.20;99.90;;;;;;5095922;28;20338;-68
2021/11/13 08:23:26;;;;;;;;;;;5.30;99.90;;;;;;5096563;28;19911;-68
2021/11/13 08:25:52;;;;;;;;;;;5.30;99.90;;;;;;5096164;28;20362;-68
2021/11/13 08:28:19;;;;;;;;;;;5.40;99.90;;;;;;5096394;28;19904;-70
2021/11/13 08:30:45;;;;;;;;;;;5.60;99.90;;;;;;5096777;28;19904;-68
2021/11/13 08:33:11;;;;;;;;;;;5.90;99.90;;;;;;5096903;28;19914;-68
2021/11/13 08:35:37;;;;;;;;;;;5.90;99.90;;;;;;5096869;28;19904;-67
2021/11/13 08:38:02;;;;;;;;;;;5.80;99.90;;;;;;5094742;28;19911;-66
2021/11/13 08:40:28;;;;;;;;;;;5.70;99.90;;;;;;5096300;28;19904;-69
2021/11/13 08:42:54;;;;;;;;;;;5.60;99.90;;;;;;5096058;28;19916;-68
2021/11/13 08:45:19;;;;;;;;;;;5.70;99.90;;;;;;5094815;28;20026;-66
2021/11/13 08:47:45;;;;;;;;;;;5.70;99.90;;;;;;5096860;28;19911;-67
2021/11/13 08:50:13;;;;;;;;;;;5.80;99.90;;;;;;5096792;28;20434;-68
2021/11/13 08:52:39;;;;;;;;;;;5.80;99.90;;;;;;5096630;28;19904;-68
2021/11/13 08:55:05;;;;;;;;;;;5.80;99.90;;;;;;5096169;28;19911;-68
2021/11/13 08:57:30;;;;;;;;;;;5.70;99.90;;;;;;5094706;28;19961;-68
2021/11/13 08:59:56;;;;;;;;;;;5.90;99.90;;;;;;5095748;28;20377;-68
2021/11/13 09:02:25;;;;;;;;;;;5.80;99.90;;;;;;5096185;28;20006;-66
2021/11/13 09:04:52;;;;;;;;;;;6.00;99.90;;;;;;5095622;28;20362;-67
2021/11/13 09:07:18;;;;;;;;;;;6.00;99.90;;;;;;5096429;28;20389;-67
2021/11/13 09:09:44;;;;;;;;;;;6.20;99.90;;;;;;5096294;28;19957;-68
2021/11/13 09:12:14;;;;;;;;;;;6.10;99.90;;;;;;5095621;28;20010;-66
2021/11/13 09:14:40;;;;;;;;;;;6.40;99.90;;;;;;5096011;28;19904;-66
2021/11/13 09:17:05;;;;;;;;;;;6.40;99.90;;;;;;5095539;28;19911;-67
2021/11/13 09:19:31;;;;;;;;;;;6.70;99.90;;;;;;5095503;28;19999;-67
2021/11/13 09:21:56;;;;;;;;;;;7.10;99.90;;;;;;5098198;28;20350;-67
2021/11/13 09:24:22;;;;;;;;;;;7.30;99.90;;;;;;5103048;28;19904;-65
2021/11/13 09:26:48;;;;;;;;;;;7.00;99.90;;;;;;5099299;28;19908;-66
2021/11/13 09:29:13;;;;;;;;;;;7.00;99.90;;;;;;5098103;28;19903;-65
2021/11/13 09:31:41;;;;;;;;;;;6.90;99.90;;;;;;5095204;28;19910;-66
2021/11/13 09:34:14;;;;;;;;;;;6.90;99.90;;;;;;5094617;28;19904;-67
2021/11/13 09:36:40;;;;;;;;;;;7.00;99.90;;;;;;5093940;28;19911;-66
2021/11/13 09:39:06;;;;;;;;;;;7.10;99.90;;;;;;5095445;28;20283;-66
2021/11/13 09:41:32;;;;;;;;;;;7.00;99.90;;;;;;5095405;28;19987;-66
2021/11/13 09:43:57;;;;;;;;;;;6.80;99.90;;;;;;5094930;28;19904;-66
2021/11/13 09:46:23;;;;;;;;;;;6.60;99.90;;;;;;5094201;28;19915;-66
2021/11/13 09:48:52;;;;;;;;;;;6.70;99.90;;;;;;5092968;28;19934;-66
2021/11/13 09:51:19;;;;;;;;;;;6.70;99.90;;;;;;5093876;28;20386;-66
2021/11/13 09:53:45;;;;;;;;;;;6.80;99.90;;;;;;5095047;28;20362;-66
2021/11/13 09:56:10;;;;;;;;;;;6.80;99.90;;;;;;5093378;28;19911;-64
2021/11/13 09:58:36;;;;;;;;;;;6.80;99.90;;;;;;5095411;28;19904;-68
2021/11/13 10:01:03;;;;;;;;;;;6.90;99.90;;;;;;5093527;28;19904;-68
2021/11/13 10:03:28;;;;;;;;;;;7.10;99.90;;;;;;5094179;28;19958;-70
2021/11/13 10:05:57;;;;;;;;;;;7.00;99.90;;;;;;5098011;28;19912;-74
2021/11/13 10:08:23;;;;;;;;;;;6.90;99.90;;;;;;5098644;28;20049;-75
2021/11/13 10:10:49;;;;;;;;;;;7.10;99.90;;;;;;5099499;28;19990;-73
2021/11/13 10:13:23;;;;;;;;;;;6.90;99.90;;;;;;5098717;28;19932;-72
2021/11/13 10:15:53;;;;;;;;;;;7.00;99.90;;;;;;5096667;28;19911;-74
2021/11/13 10:18:24;;;;;;;;;;;6.80;99.90;;;;;;5095492;28;19991;-71
2021/11/13 10:21:01;;;;;;;;;;;6.80;99.90;;;;;;5095867;28;19955;-70
2021/11/13 10:23:48;;;;;;;;;;;6.80;99.90;;;;;;5094820;28;19903;-68
2021/11/13 10:26:15;;;;;;;;;;;6.90;99.90;;;;;;5093302;28;19953;-71
2021/11/13 10:28:43;;;;;;;;;;;7.00;99.90;;;;;;5096297;28;20287;-69
2021/11/13 10:31:14;;;;;;;;;;;7.20;99.90;;;;;;5097161;28;20343;-70
2021/11/13 10:33:41;;;;;;;;;;;7.20;99.90;;;;;;5094756;28;19903;-71
2021/11/13 10:36:07;;;;;;;;;;;7.30;99.90;;;;;;5094855;28;20426;-72
2021/11/13 10:38:33;;;;;;;;;;;7.30;99.90;;;;;;5094972;28;19950;-75
2021/11/13 10:41:00;;;;;;;;;;;7.40;99.90;;;;;;5093524;28;19911;-72
2021/11/13 10:43:31;;;;;;;;;;;7.40;99.90;;;;;;5093400;28;20293;-74
2021/11/13 10:45:58;;;;;;;;;;;7.50;99.90;;;;;;5094540;28;19915;-73
2021/11/13 10:48:24;;;;;;;;;;;7.60;99.90;;;;;;5094495;28;19904;-75
2021/11/13 10:50:50;;;;;;;;;;;7.70;99.90;;;;;;5094459;28;20393;-71
2021/11/13 10:53:22;;;;;;;;;;;7.80;99.90;;;;;;5092483;28;20267;-70
2021/11/13 10:56:07;;;;;;;;;;;7.80;99.90;;;;;;5094670;28;19904;-71
2021/11/13 10:58:36;;;;;;;;;;;7.80;99.90;;;;;;5094134;28;19922;-69
2021/11/13 11:01:08;;;;;;;;;;;7.70;99.90;;;;;;5093950;28;19904;-69
2021/11/13 11:03:41;;;;;;;;;;;7.70;99.90;;;;;;5092501;28;19908;-68
2021/11/13 11:06:07;;;;;;;;;;;7.70;99.90;;;;;;5093557;28;19907;-67
2021/11/13 11:08:34;;;;;;;;;;;7.70;99.90;;;;;;5093675;28;19908;-68
2021/11/13 11:11:00;;;;;;;;;;;7.70;99.90;;;;;;5092275;28;19904;-69
2021/11/13 11:13:44;;;;;;;;;;;7.80;99.90;;;;;;5093573;28;19904;-70
2021/11/13 11:16:29;;;;;;;;;;;7.90;99.90;;;;;;5093662;28;19911;-69
2021/11/13 11:19:00;;;;;;;;;;;7.90;99.90;;;;;;5093593;28;19904;-71
2021/11/13 11:21:44;;;;;;;;;;;8.10;99.90;;;;;;5093739;28;19908;-68
2021/11/13 11:24:24;;;;;;;;;;;8.10;99.90;;;;;;5093597;28;19914;-69
2021/11/13 11:26:58;;;;;;;;;;;8.20;99.90;;;;;;5093313;28;19912;-69
2021/11/13 11:29:25;;;;;;;;;;;8.10;99.90;;;;;;5093832;28;20024;-73
2021/11/13 11:31:51;;;;;;;;;;;8.00;99.90;;;;;;5093858;28;20427;-68
2021/11/13 11:34:21;;;;;;;;;;;8.00;99.90;;;;;;5093526;28;19949;-70
2021/11/13 11:36:47;;;;;;;;;;;7.90;99.90;;;;;;5092152;28;19904;-72
2021/11/13 11:39:14;;;;;;;;;;;7.90;99.90;;;;;;5093888;28;19951;-73
2021/11/13 11:41:39;;;;;;;;;;;7.80;99.90;;;;;;5092285;28;19936;-71
2021/11/13 11:44:05;;;;;;;;;;;7.90;99.90;;;;;;5092240;28;19927;-70
2021/11/13 11:46:32;;;;;;;;;;;7.90;99.90;;;;;;5092639;28;19965;-70
2021/11/13 11:48:58;;;;;;;;;;;7.90;99.90;;;;;;5092728;28;19911;-71
2021/11/13 11:51:24;;;;;;;;;;;7.90;99.90;;;;;;5092140;28;19929;-71
2021/11/13 11:53:49;;;;;;;;;;;7.90;99.90;;;;;;5093438;28;19994;-71
2021/11/13 11:56:16;;;;;;;;;;;7.90;99.90;;;;;;5097128;28;19911;-70
2021/11/13 11:58:41;;;;;;;;;;;8.00;99.90;;;;;;5098651;28;19911;-69
2021/11/13 12:01:22;;;;;;;;;;;8.00;99.90;;;;;;5098186;28;19904;-71
2021/11/13 12:03:48;;;;;;;;;;;8.00;99.90;;;;;;5096070;28;19904;-70
2021/11/13 12:06:13;;;;;;;;;;;8.20;99.90;;;;;;5097295;28;19949;-70
2021/11/13 12:08:39;;;;;;;;;;;8.30;99.90;;;;;;5096834;28;19904;-69
2021/11/13 12:11:22;;;;;;;;;;;8.50;99.90;;;;;;5097202;28;19908;-69
2021/11/13 12:13:47;;;;;;;;;;;8.50;99.90;;;;;;5096865;28;19947;-67
2021/11/13 12:16:31;;;;;;;;;;;8.60;99.90;;;;;;5095601;28;19911;-68
2021/11/13 12:19:07;;;;;;;;;;;8.80;99.90;;;;;;5097071;28;20303;-67
2021/11/13 12:21:32;;;;;;;;;;;8.90;99.90;;;;;;5097023;28;19957;-67
2021/11/13 12:24:06;;;;;;;;;;;8.90;99.90;;;;;;5095106;28;19904;-68
2021/11/13 12:26:34;;;;;;;;;;;9.00;99.90;;;;;;5096552;28;19908;-69
2021/11/13 12:29:01;;;;;;;;;;;9.10;99.90;;;;;;5095572;28;19904;-69
2021/11/13 12:31:29;;;;;;;;;;;9.20;99.90;;;;;;5096837;28;19904;-69
2021/11/13 12:34:00;;;;;;;;;;;9.20;99.90;;;;;;5095410;28;19904;-68
2021/11/13 12:36:46;;;;;;;;;;;9.20;99.90;;;;;;5096761;28;19926;-69
2021/11/13 12:39:13;;;;;;;;;;;9.20;99.90;;;;;;5095046;28;19904;-69
2021/11/13 12:41:38;;;;;;;;;;;9.10;99.90;;;;;;5096882;28;19948;-68
2021/11/13 12:44:15;;;;;;;;;;;9.20;99.90;;;;;;5097250;28;20355;-69
2021/11/13 12:46:45;;;;;;;;;;;9.10;99.90;;;;;;5096375;28;19919;-68
2021/11/13 12:49:22;;;;;;;;;;;9.00;99.90;;;;;;5095248;28;19973;-67
2021/11/13 12:51:54;;;;;;;;;;;8.90;99.90;;;;;;5095610;28;19904;-68
2021/11/13 12:54:20;;;;;;;;;;;8.90;99.90;;;;;;5096374;28;19904;-68
2021/11/13 12:56:47;;;;;;;;;;;8.90;99.90;;;;;;5094684;28;20362;-69
2021/11/13 12:59:17;;;;;;;;;;;8.80;99.90;;;;;;5097851;28;19939;-69
2021/11/13 13:01:51;;;;;;;;;;;8.80;99.90;;;;;;5096752;28;20278;-69
2021/11/13 13:04:17;;;;;;;;;;;8.90;99.90;;;;;;5097947;28;19904;-69
2021/11/13 13:06:43;;;;;;;;;;;8.80;99.90;;;;;;5094963;28;20007;-71
2021/11/13 13:09:08;;;;;;;;;;;8.80;99.90;;;;;;5096650;28;19970;-69
2021/11/13 13:11:34;;;;;;;;;;;8.80;99.90;;;;;;5096222;28;20350;-67
2021/11/13 13:13:59;;;;;;;;;;;8.80;99.90;;;;;;5096251;28;19951;-68
2021/11/13 13:16:26;;;;;;;;;;;8.80;99.90;;;;;;5096332;28;20307;-68
2021/11/13 13:18:57;;;;;;;;;;;8.80;99.90;;;;;;5096545;28;20354;-70
2021/11/13 13:21:23;;;;;;;;;;;8.80;99.90;;;;;;5094487;28;20040;-70
2021/11/13 13:23:48;;;;;;;;;;;8.80;99.90;;;;;;5095788;28;20369;-69
2021/11/13 13:26:17;;;;;;;;;;;8.80;99.90;;;;;;5095729;28;19915;-72
2021/11/13 13:28:43;;;;;;;;;;;8.70;99.90;;;;;;5094466;28;20375;-72
2021/11/13 13:31:10;;;;;;;;;;;8.70;99.90;;;;;;5093772;28;20033;-73
2021/11/13 13:33:36;;;;;;;;;;;8.60;99.90;;;;;;5095650;28;19904;-73
2021/11/13 13:36:02;;;;;;;;;;;8.60;99.90;;;;;;5095535;28;19910;-69
2021/11/13 13:38:27;;;;;;;;;;;8.60;99.90;;;;;;5094176;28;19904;-70
2021/11/13 13:40:55;;;;;;;;;;;8.60;99.90;;;;;;5096005;28;19904;-72
2021/11/13 13:43:25;;;;;;;;;;;8.60;99.90;;;;;;5094411;28;20379;-71
2021/11/13 13:46:11;;;;;;;;;;;8.60;99.90;;;;;;5094647;28;20255;-69
2021/11/13 13:49:05;;;;;;;;;;;8.60;99.90;;;;;;5095712;28;19904;-68
2021/11/13 13:51:36;;;;;;;;;;;8.60;99.90;;;;;;5090936;28;19908;-69
2021/11/13 13:54:15;;;;;;;;;;;8.60;99.90;;;;;;5094934;28;19939;-70
2021/11/13 13:56:43;;;;;;;;;;;8.60;99.90;;;;;;5094326;28;19943;-69
2021/11/13 13:59:18;;;;;;;;;;;8.70;99.90;;;;;;5095951;28;19904;-70
2021/11/13 14:01:50;;;;;;;;;;;8.70;99.90;;;;;;5097428;28;19904;-68
2021/11/13 14:04:15;;;;;;;;;;;8.70;99.90;;;;;;5101346;28;19910;-69
2021/11/13 14:06:41;;;;;;;;;;;8.70;99.90;;;;;;5100907;28;20426;-69
2021/11/13 14:09:07;;;;;;;;;;;8.70;99.90;;;;;;5097367;28;19953;-68
2021/11/13 14:11:33;;;;;;;;;;;8.80;99.90;;;;;;5096026;28;19950;-69
2021/11/13 14:13:58;;;;;;;;;;;8.80;99.90;;;;;;5094133;28;19904;-68
2021/11/13 14:16:29;;;;;;;;;;;8.80;99.90;;;;;;5094004;28;19904;-69
2021/11/13 14:18:56;;;;;;;;;;;8.90;99.90;;;;;;5093101;28;19904;-67
2021/11/13 14:21:24;;;;;;;;;;;8.80;99.90;;;;;;5093909;28;19911;-68
2021/11/13 14:23:50;;;;;;;;;;;8.90;99.90;;;;;;5093932;28;20317;-69
2021/11/13 14:26:19;;;;;;;;;;;8.90;99.90;;;;;;5093650;28;19908;-69
2021/11/13 14:29:04;;;;;;;;;;;8.90;99.90;;;;;;5095132;28;19904;-69
2021/11/13 14:31:32;;;;;;;;;;;9.00;99.90;;;;;;5093595;28;20311;-68
2021/11/13 14:34:03;;;;;;;;;;;9.00;99.90;;;;;;5093624;28;19910;-68